createdAt,value
2018-02-03T00:02:26.450Z,12.35
2018-02-03T00:04:53.981Z,12.27
2018-02-03T00:07:21.568Z,12.24
2018-02-03T00:09:49.137Z,12.19
2018-02-03T00:12:16.718Z,12.17
2018-02-03T00:14:44.266Z,12.19
2018-02-03T00:17:11.802Z,12.09
2018-02-03T00:19:39.382Z,12.03
2018-02-03T00:22:06.927Z,11.94
2018-02-03T00:24:34.464Z,11.87
2018-02-03T00:27:02.009Z,11.77
2018-02-03T00:29:29.553Z,11.63
2018-02-03T00:31:57.207Z,11.47
2018-02-03T00:34:24.896Z,11.38
2018-02-03T00:36:52.539Z,11.32
2018-02-03T00:39:20.082Z,11.25
2018-02-03T00:41:47.876Z,11.21
2018-02-03T00:44:15.464Z,11.25
2018-02-03T00:46:43.031Z,11.27
2018-02-03T00:49:10.722Z,11.26
2018-02-03T00:51:38.317Z,11.13
2018-02-03T00:54:05.958Z,11.09
2018-02-03T00:56:33.535Z,11.07
2018-02-03T00:59:01.402Z,11.04
2018-02-03T01:01:28.980Z,11.04
2018-02-03T01:03:56.542Z,11.01
2018-02-03T01:06:24.098Z,11.00
2018-02-03T01:08:51.790Z,11.07
2018-02-03T01:11:19.354Z,11.11
2018-02-03T01:13:47.185Z,11.13
2018-02-03T01:16:14.762Z,11.18
2018-02-03T01:18:42.547Z,11.23
2018-02-03T01:21:10.189Z,11.29
2018-02-03T01:23:37.983Z,11.33
2018-02-03T01:26:05.546Z,11.40
2018-02-03T01:28:33.318Z,11.37
2018-02-03T01:31:00.878Z,11.38
2018-02-03T01:33:28.656Z,11.42
2018-02-03T01:35:56.210Z,11.43
2018-02-03T01:38:23.950Z,11.43
2018-02-03T01:40:51.520Z,11.42
2018-02-03T01:43:19.327Z,11.41
2018-02-03T01:45:47.052Z,11.51
2018-02-03T01:48:14.863Z,11.54
2018-02-03T01:50:42.422Z,11.53
2018-02-03T01:53:10.006Z,11.55
2018-02-03T01:55:37.691Z,11.53
2018-02-03T01:58:05.539Z,11.73
2018-02-03T02:00:33.170Z,11.83
2018-02-03T02:03:00.723Z,11.90
2018-02-03T02:05:28.286Z,11.91
2018-02-03T02:07:55.889Z,11.90
2018-02-03T02:10:23.457Z,11.82
2018-02-03T02:12:51.022Z,11.79
2018-02-03T02:15:18.722Z,11.70
2018-02-03T02:17:46.282Z,11.62
2018-02-03T02:20:13.890Z,11.63
2018-02-03T02:22:41.615Z,11.60
2018-02-03T02:25:09.174Z,11.79
2018-02-03T02:27:36.951Z,11.90
2018-02-03T02:30:04.749Z,11.92
2018-02-03T02:32:32.317Z,11.95
2018-02-03T02:35:00.080Z,11.89
2018-02-03T02:37:27.643Z,11.81
2018-02-03T02:39:55.231Z,11.76
2018-02-03T02:42:22.807Z,11.70
2018-02-03T02:44:50.367Z,11.68
2018-02-03T02:47:17.986Z,11.77
2018-02-03T02:49:45.597Z,11.78
2018-02-03T02:52:13.295Z,11.83
2018-02-03T02:54:40.937Z,11.82
2018-02-03T02:57:08.501Z,11.79
2018-02-03T02:59:36.181Z,11.75
2018-02-03T03:02:03.823Z,11.73
2018-02-03T03:04:31.621Z,11.67
2018-02-03T03:06:59.178Z,11.62
2018-02-03T03:09:26.726Z,11.64
2018-02-03T03:11:54.274Z,11.63
2018-02-03T03:14:22.092Z,11.66
2018-02-03T03:16:49.810Z,11.69
2018-02-03T03:19:17.503Z,11.63
2018-02-03T03:21:45.072Z,11.58
2018-02-03T03:24:12.633Z,11.59
2018-02-03T03:26:40.381Z,11.69
2018-02-03T03:29:08.195Z,11.80
2018-02-03T03:31:36.024Z,11.84
2018-02-03T03:34:03.612Z,11.89
2018-02-03T03:36:31.354Z,11.90
2018-02-03T03:38:59.073Z,11.96
2018-02-03T03:41:26.646Z,12.05
2018-02-03T03:43:54.206Z,12.07
2018-02-03T03:46:21.784Z,12.07
2018-02-03T03:48:49.357Z,12.11
2018-02-03T03:51:17.164Z,12.21
2018-02-03T03:53:44.772Z,12.30
2018-02-03T03:56:12.326Z,12.55
2018-02-03T03:58:39.885Z,12.60
2018-02-03T04:01:07.480Z,12.76
2018-02-03T04:03:35.086Z,12.91
2018-02-03T04:06:02.783Z,13.01
2018-02-03T04:08:30.374Z,13.00
2018-02-03T04:10:57.942Z,13.09
2018-02-03T04:13:25.638Z,13.15
2018-02-03T04:15:53.245Z,13.19
2018-02-03T04:18:20.827Z,13.14
2018-02-03T04:20:48.383Z,13.13
2018-02-03T04:23:15.972Z,13.14
2018-02-03T04:25:43.714Z,13.25
2018-02-03T04:28:11.288Z,13.29
2018-02-03T04:30:38.895Z,13.35
2018-02-03T04:33:06.666Z,13.35
2018-02-03T04:35:34.216Z,13.41
2018-02-03T04:38:01.995Z,13.39
2018-02-03T04:40:29.600Z,13.33
2018-02-03T04:42:57.164Z,13.30
2018-02-03T04:45:24.956Z,13.36
2018-02-03T04:47:52.513Z,13.32
2018-02-03T04:50:20.172Z,13.37
2018-02-03T04:52:47.910Z,13.37
2018-02-03T04:55:15.466Z,13.40
2018-02-03T04:57:43.057Z,13.35
2018-02-03T05:00:10.629Z,13.26
2018-02-03T05:02:38.200Z,13.38
2018-02-03T05:05:05.790Z,13.36
2018-02-03T05:07:33.393Z,13.33
2018-02-03T05:10:01.136Z,13.29
2018-02-03T05:12:28.689Z,13.24
2018-02-03T05:14:56.250Z,13.17
2018-02-03T05:17:24.089Z,13.23
2018-02-03T05:19:51.908Z,13.36
2018-02-03T05:22:19.469Z,13.41
2018-02-03T05:24:47.248Z,13.49
2018-02-03T05:27:14.801Z,13.60
2018-02-03T05:29:42.491Z,13.64
2018-02-03T05:32:10.045Z,13.60
2018-02-03T05:34:37.654Z,13.61
2018-02-03T05:37:05.503Z,13.66
2018-02-03T05:39:33.352Z,13.73
2018-02-03T05:42:00.962Z,13.76
2018-02-03T05:44:28.933Z,13.78
2018-02-03T05:46:56.587Z,13.81
2018-02-03T05:49:24.162Z,13.84
2018-02-03T05:51:51.950Z,13.82
2018-02-03T05:54:19.518Z,13.76
2018-02-03T05:56:47.077Z,13.72
2018-02-03T05:59:14.651Z,13.69
2018-02-03T06:01:42.208Z,13.70
2018-02-03T06:04:09.795Z,13.73
2018-02-03T06:06:37.393Z,13.82
2018-02-03T06:09:05.014Z,13.72
2018-02-03T06:11:32.561Z,13.80
2018-02-03T06:14:00.178Z,13.81
2018-02-03T06:16:27.921Z,13.89
2018-02-03T06:18:55.518Z,13.98
2018-02-03T06:21:23.075Z,14.00
2018-02-03T06:23:50.642Z,13.97
2018-02-03T06:26:18.485Z,14.03
2018-02-03T06:28:46.055Z,14.10
2018-02-03T06:31:13.832Z,14.22
2018-02-03T06:33:41.548Z,14.26
2018-02-03T06:36:09.367Z,14.24
2018-02-03T06:38:36.945Z,14.29
2018-02-03T06:41:04.521Z,14.37
2018-02-03T06:43:32.091Z,14.42
2018-02-03T06:45:59.650Z,14.40
2018-02-03T06:48:27.460Z,14.41
2018-02-03T06:50:55.073Z,14.35
2018-02-03T06:53:22.654Z,14.44
2018-02-03T06:55:50.220Z,14.46
2018-02-03T06:58:18.121Z,14.45
2018-02-03T07:00:45.946Z,14.47
2018-02-03T07:03:13.697Z,14.45
2018-02-03T07:05:41.483Z,14.44
2018-02-03T07:08:09.352Z,14.41
2018-02-03T07:10:36.919Z,14.35
2018-02-03T07:13:04.489Z,14.31
2018-02-03T07:15:32.209Z,14.33
2018-02-03T07:17:59.872Z,14.34
2018-02-03T07:20:27.450Z,14.34
2018-02-03T07:22:55.030Z,14.33
2018-02-03T07:25:22.710Z,14.34
2018-02-03T07:27:50.289Z,14.34
2018-02-03T07:30:17.906Z,14.36
2018-02-03T07:32:45.466Z,14.31
2018-02-03T07:35:13.299Z,14.24
2018-02-03T07:37:40.861Z,14.19
2018-02-03T07:40:08.407Z,14.13
2018-02-03T07:42:36.012Z,14.11
2018-02-03T07:45:03.618Z,14.09
2018-02-03T07:47:31.348Z,14.09
2018-02-03T07:49:58.902Z,14.08
2018-02-03T07:52:26.518Z,14.05
2018-02-03T07:54:54.222Z,14.00
2018-02-03T07:57:21.809Z,13.95
2018-02-03T07:59:49.373Z,13.93
2018-02-03T08:02:17.099Z,13.93
2018-02-03T08:04:44.918Z,13.93
2018-02-03T08:07:12.478Z,13.94
2018-02-03T08:09:40.221Z,13.98
2018-02-03T08:12:07.814Z,14.03
2018-02-03T08:14:35.376Z,14.04
2018-02-03T08:17:02.956Z,14.08
2018-02-03T08:19:30.518Z,14.15
2018-02-03T08:21:58.225Z,14.20
2018-02-03T08:24:25.958Z,14.29
2018-02-03T08:26:53.529Z,14.35
2018-02-03T08:29:21.294Z,14.39
2018-02-03T08:31:48.858Z,14.45
2018-02-03T08:34:16.630Z,14.51
2018-02-03T08:36:44.448Z,14.56
2018-02-03T08:39:12.058Z,14.58
2018-02-03T08:41:39.635Z,14.56
2018-02-03T08:44:07.404Z,14.57
2018-02-03T08:46:35.062Z,14.59
2018-02-03T08:49:02.811Z,14.59
2018-02-03T08:51:30.525Z,14.59
2018-02-03T08:53:58.285Z,14.58
2018-02-03T08:56:25.925Z,14.59
2018-02-03T08:58:53.490Z,14.66
2018-02-03T09:01:21.082Z,14.68
2018-02-03T09:03:48.663Z,14.71
2018-02-03T09:06:16.233Z,14.74
2018-02-03T09:08:43.811Z,14.79
2018-02-03T09:11:11.370Z,14.79
2018-02-03T09:13:39.221Z,14.80
2018-02-03T09:16:06.797Z,14.79
2018-02-03T09:18:34.374Z,14.80
2018-02-03T09:21:02.172Z,14.82
2018-02-03T09:23:29.891Z,14.84
2018-02-03T09:25:57.466Z,14.87
2018-02-03T09:28:25.030Z,14.89
2018-02-03T09:30:52.654Z,14.91
2018-02-03T09:33:20.272Z,14.91
2018-02-03T09:35:48.005Z,14.87
2018-02-03T09:38:15.652Z,14.87
2018-02-03T09:40:43.211Z,14.87
2018-02-03T09:43:10.782Z,14.86
2018-02-03T09:45:38.514Z,14.88
2018-02-03T09:48:06.156Z,14.87
2018-02-03T09:50:33.732Z,14.84
2018-02-03T09:53:01.590Z,14.83
2018-02-03T09:55:29.174Z,14.82
2018-02-03T09:57:56.725Z,14.79
2018-02-03T10:00:24.304Z,14.80
2018-02-03T10:02:52.026Z,14.83
2018-02-03T10:05:19.734Z,14.84
2018-02-03T10:07:47.298Z,14.88
2018-02-03T10:10:15.017Z,14.90
2018-02-03T10:12:42.618Z,14.92
2018-02-03T10:15:10.352Z,14.93
2018-02-03T10:17:37.925Z,14.92
2018-02-03T10:20:05.489Z,14.94
2018-02-03T10:22:33.305Z,14.95
2018-02-03T10:25:01.026Z,14.98
2018-02-03T10:27:28.577Z,14.99
2018-02-03T10:29:56.154Z,15.02
2018-02-03T10:32:23.722Z,15.07
2018-02-03T10:34:51.299Z,15.10
2018-02-03T10:37:18.931Z,15.12
2018-02-03T10:39:46.751Z,15.17
2018-02-03T10:42:14.386Z,15.22
2018-02-03T10:44:41.961Z,15.27
2018-02-03T10:47:09.519Z,15.29
2018-02-03T10:49:37.089Z,15.33
2018-02-03T10:52:04.858Z,15.34
2018-02-03T10:54:32.676Z,15.34
2018-02-03T10:57:00.483Z,15.35
2018-02-03T10:59:28.078Z,15.35
2018-02-03T11:01:55.648Z,15.37
2018-02-03T11:04:23.331Z,15.41
2018-02-03T11:06:51.035Z,15.44
2018-02-03T11:09:18.702Z,15.50
2018-02-03T11:11:46.295Z,15.59
2018-02-03T11:14:13.912Z,15.58
2018-02-03T11:16:41.533Z,15.66
2018-02-03T11:19:09.240Z,15.68
2018-02-03T11:21:36.867Z,15.73
2018-02-03T11:24:04.593Z,15.74
2018-02-03T11:26:32.165Z,15.77
2018-02-03T11:28:59.729Z,15.83
2018-02-03T11:31:27.341Z,15.88
2018-02-03T11:33:55.060Z,15.93
2018-02-03T11:36:22.618Z,15.94
2018-02-03T11:38:50.291Z,15.98
2018-02-03T11:41:17.897Z,16.04
2018-02-03T11:43:45.513Z,16.11
2018-02-03T11:46:13.268Z,16.13
2018-02-03T11:48:40.973Z,16.24
2018-02-03T11:51:08.547Z,16.38
2018-02-03T11:53:36.311Z,16.43
2018-02-03T11:56:04.127Z,16.49
2018-02-03T11:58:31.948Z,16.56
2018-02-03T12:00:59.766Z,16.58
2018-02-03T12:03:27.486Z,16.61
2018-02-03T12:05:55.073Z,16.56
2018-02-03T12:08:22.811Z,16.63
2018-02-03T12:10:50.637Z,16.68
2018-02-03T12:13:18.250Z,16.74
2018-02-03T12:15:45.814Z,16.74
2018-02-03T12:18:13.380Z,16.73
2018-02-03T12:20:41.197Z,16.80
2018-02-03T12:23:08.771Z,16.80
2018-02-03T12:25:36.459Z,16.76
2018-02-03T12:28:04.267Z,16.77
2018-02-03T12:30:32.082Z,16.69
2018-02-03T12:32:59.737Z,16.64
2018-02-03T12:35:27.404Z,16.60
2018-02-03T12:37:54.981Z,16.59
2018-02-03T12:40:22.597Z,16.58
2018-02-03T12:42:50.372Z,16.59
2018-02-03T12:45:18.102Z,16.56
2018-02-03T12:47:45.701Z,16.56
2018-02-03T12:50:13.253Z,16.57
2018-02-03T12:52:40.858Z,16.57
2018-02-03T12:55:08.714Z,16.53
2018-02-03T12:57:36.253Z,16.54
2018-02-03T13:00:03.853Z,16.49
2018-02-03T13:02:31.406Z,16.51
2018-02-03T13:04:59.295Z,16.52
2018-02-03T13:07:26.849Z,16.52
2018-02-03T13:09:54.403Z,16.50
2018-02-03T13:12:21.969Z,16.50
2018-02-03T13:14:49.806Z,16.50
2018-02-03T13:17:17.526Z,16.52
2018-02-03T13:19:45.220Z,16.55
2018-02-03T13:22:12.897Z,16.55
2018-02-03T13:24:40.682Z,16.59
2018-02-03T13:27:08.368Z,16.75
2018-02-03T13:29:36.087Z,17.05
2018-02-03T13:32:03.649Z,17.33
2018-02-03T13:34:31.453Z,17.56
2018-02-03T13:36:59.027Z,17.64
2018-02-03T13:39:26.593Z,17.67
2018-02-03T13:41:54.196Z,17.87
2018-02-03T13:44:21.909Z,17.88
2018-02-03T13:46:49.644Z,18.07
2018-02-03T13:49:17.215Z,17.89
2018-02-03T13:51:44.821Z,17.92
2018-02-03T13:54:12.505Z,18.19
2018-02-03T13:56:40.065Z,18.41
2018-02-03T13:59:07.663Z,18.70
2018-02-03T14:01:35.238Z,18.55
2018-02-03T14:04:02.813Z,18.31
2018-02-03T14:06:30.475Z,18.06
2018-02-03T14:08:58.094Z,18.20
2018-02-03T14:11:25.657Z,18.10
2018-02-03T14:13:53.571Z,17.78
2018-02-03T14:16:21.152Z,17.53
2018-02-03T14:18:48.936Z,17.77
2018-02-03T14:21:16.754Z,18.07
2018-02-03T14:26:46.301Z,18.21
2018-02-03T14:29:14.132Z,18.01
2018-02-03T14:31:41.948Z,17.78
2018-02-03T14:34:09.521Z,17.67
2018-02-03T14:36:37.085Z,17.57
2018-02-03T14:39:04.735Z,17.43
2018-02-03T14:41:32.309Z,17.42
2018-02-03T14:44:00.137Z,17.45
2018-02-03T14:46:27.859Z,17.40
2018-02-03T14:48:55.998Z,17.17
2018-02-03T14:51:24.697Z,17.05
2018-02-03T14:53:53.788Z,16.91
2018-02-03T14:56:21.725Z,16.80
2018-02-03T14:58:49.548Z,16.75
2018-02-03T15:01:17.367Z,16.71
2018-02-03T15:03:45.119Z,16.65
2018-02-03T15:06:12.980Z,16.57
2018-02-03T15:08:40.622Z,16.50
2018-02-03T15:11:08.450Z,16.42
2018-02-03T15:13:36.260Z,16.40
2018-02-03T15:16:05.492Z,16.32
2018-02-03T15:18:33.572Z,16.26
2018-02-03T15:21:02.334Z,16.22
2018-02-03T15:23:30.238Z,16.14
2018-02-03T15:26:00.071Z,16.11
2018-02-03T15:28:27.888Z,16.06
2018-02-03T15:31:02.061Z,16.02
2018-02-03T15:33:32.062Z,15.99
2018-02-03T15:35:59.852Z,15.95
2018-02-03T15:38:27.406Z,15.90
2018-02-03T15:40:54.989Z,15.89
2018-02-03T15:43:22.548Z,15.90
2018-02-03T15:45:50.173Z,15.92
2018-02-03T15:48:17.782Z,15.90
2018-02-03T15:50:45.590Z,15.91
2018-02-03T15:53:13.160Z,15.92
2018-02-03T15:55:40.717Z,15.87
2018-02-03T15:58:08.266Z,15.83
2018-02-03T16:00:35.851Z,15.76
2018-02-03T16:03:03.682Z,15.69
2018-02-03T16:05:31.500Z,15.68
2018-02-03T16:07:59.316Z,15.67
2018-02-03T16:10:27.136Z,15.64
2018-02-03T16:12:54.697Z,15.68
2018-02-03T16:15:22.258Z,15.68
2018-02-03T16:17:50.088Z,15.71
2018-02-03T16:20:17.907Z,15.73
2018-02-03T16:22:45.470Z,15.74
2018-02-03T16:25:13.209Z,15.74
2018-02-03T16:27:40.949Z,15.76
2018-02-03T16:30:08.679Z,15.74
2018-02-03T16:32:36.292Z,15.72
2018-02-03T16:35:03.854Z,15.71
2018-02-03T16:37:31.417Z,15.72
2018-02-03T16:39:58.997Z,15.67
2018-02-03T16:42:26.677Z,15.74
2018-02-03T16:44:54.257Z,15.77
2018-02-03T16:47:22.005Z,15.74
2018-02-03T16:49:49.924Z,15.78
2018-02-03T16:52:17.490Z,15.76
2018-02-03T16:54:45.260Z,15.81
2018-02-03T16:57:12.853Z,15.84
2018-02-03T16:59:40.595Z,15.83
2018-02-03T17:02:08.200Z,15.79
2018-02-03T17:04:35.809Z,15.82
2018-02-03T17:07:03.430Z,15.78
2018-02-03T17:09:30.991Z,15.78
2018-02-03T17:11:58.554Z,15.75
2018-02-03T17:14:26.194Z,15.69
2018-02-03T17:16:54.002Z,15.65
2018-02-03T17:19:21.586Z,15.70
2018-02-03T17:21:49.150Z,15.70
2018-02-03T17:24:16.772Z,15.71
2018-02-03T17:26:44.493Z,15.69
2018-02-03T17:29:12.317Z,15.66
2018-02-03T17:31:39.919Z,15.67
2018-02-03T17:34:07.477Z,15.62
2018-02-03T17:36:40.521Z,15.59
2018-02-03T17:39:13.625Z,15.60
2018-02-03T17:41:41.440Z,15.62
2018-02-03T17:44:09.005Z,15.66
2018-02-03T17:46:42.051Z,15.67
2018-02-03T17:49:09.654Z,15.64
2018-02-03T17:51:37.322Z,15.63
2018-02-03T17:54:05.051Z,15.59
2018-02-03T17:56:38.209Z,15.54
2018-02-03T17:59:05.774Z,15.56
2018-02-03T18:01:33.383Z,15.59
2018-02-03T18:04:00.957Z,15.55
2018-02-03T18:06:34.061Z,15.54
2018-02-03T18:09:01.674Z,15.55
2018-02-03T18:11:29.235Z,15.57
2018-02-03T18:13:57.025Z,15.53
2018-02-03T18:16:24.645Z,15.57
2018-02-03T18:18:52.366Z,15.53
2018-02-03T18:21:19.938Z,15.49
2018-02-03T18:23:47.595Z,15.51
2018-02-03T18:26:15.210Z,15.51
2018-02-03T18:28:42.786Z,15.49
2018-02-03T18:31:10.621Z,15.46
2018-02-03T18:33:38.292Z,15.43
2018-02-03T18:36:05.867Z,15.42
2018-02-03T18:38:33.515Z,15.42
2018-02-03T18:41:01.097Z,15.44
2018-02-03T18:43:28.663Z,15.45
2018-02-03T18:45:56.447Z,15.43
2018-02-03T18:48:24.054Z,15.38
2018-02-03T18:50:51.603Z,15.41
2018-02-03T18:53:19.177Z,15.36
2018-02-03T18:55:46.749Z,15.33
2018-02-03T18:58:14.307Z,15.32
2018-02-03T19:00:42.071Z,15.33
2018-02-03T19:03:09.634Z,15.35
2018-02-03T19:05:37.477Z,15.32
2018-02-03T19:08:05.192Z,15.29
2018-02-03T19:10:32.761Z,15.29
2018-02-03T19:13:00.322Z,15.30
2018-02-03T19:15:27.909Z,15.37
2018-02-03T19:17:55.487Z,15.39
2018-02-03T19:20:23.176Z,15.39
2018-02-03T19:22:50.778Z,15.43
2018-02-03T19:25:18.509Z,15.39
2018-02-03T19:27:46.138Z,15.42
2018-02-03T19:30:13.698Z,15.40
2018-02-03T19:32:41.507Z,15.41
2018-02-03T19:35:09.895Z,15.36
2018-02-03T19:37:37.554Z,15.36
2018-02-03T19:40:05.166Z,15.36
2018-02-03T19:42:32.734Z,15.34
2018-02-03T19:45:00.270Z,15.28
2018-02-03T19:47:27.837Z,15.27
2018-02-03T19:49:55.633Z,15.22
2018-02-03T19:52:23.342Z,15.16
2018-02-03T19:54:50.937Z,15.12
2018-02-03T19:57:18.666Z,15.11
2018-02-03T19:59:46.248Z,15.07
2018-02-03T20:02:13.981Z,15.08
2018-02-03T20:04:41.742Z,15.03
2018-02-03T20:07:09.370Z,14.99
2018-02-03T20:09:36.963Z,14.95
2018-02-03T20:12:04.587Z,14.96
2018-02-03T20:14:32.209Z,14.96
2018-02-03T20:16:59.819Z,14.92
2018-02-03T20:19:27.382Z,14.94
2018-02-03T20:21:54.945Z,14.93
2018-02-03T20:24:22.509Z,14.87
2018-02-03T20:26:50.081Z,14.85
2018-02-03T20:29:17.637Z,14.86
2018-02-03T20:31:45.404Z,14.86
2018-02-03T20:34:12.966Z,14.83
2018-02-03T20:36:40.526Z,14.85
2018-02-03T20:39:08.291Z,14.80
2018-02-03T20:41:35.858Z,14.76
2018-02-03T20:44:03.470Z,14.72
2018-02-03T20:46:31.011Z,14.73
2018-02-03T20:48:58.753Z,14.73
2018-02-03T20:51:26.484Z,14.72
2018-02-03T20:53:54.078Z,14.65
2018-02-03T20:56:21.690Z,14.58
2018-02-03T20:58:49.241Z,14.60
2018-02-03T21:01:17.054Z,14.64
2018-02-03T21:03:44.613Z,14.65
2018-02-03T21:06:12.258Z,14.67
2018-02-03T21:08:39.809Z,14.63
2018-02-03T21:11:07.388Z,14.60
2018-02-03T21:13:34.974Z,14.58
2018-02-03T21:16:02.534Z,14.60
2018-02-03T21:18:30.106Z,14.62
2018-02-03T21:20:57.896Z,14.66
2018-02-03T21:23:25.569Z,14.64
2018-02-03T21:25:53.153Z,14.65
2018-02-03T21:28:20.722Z,14.61
2018-02-03T21:30:48.291Z,14.60
2018-02-03T21:33:16.086Z,14.69
2018-02-03T21:35:43.699Z,14.69
2018-02-03T21:38:11.307Z,14.72
2018-02-03T21:40:39.140Z,14.73
2018-02-03T21:43:06.706Z,14.61
2018-02-03T21:45:34.478Z,14.51
2018-02-03T21:48:02.088Z,14.45
2018-02-03T21:50:29.657Z,14.31
2018-02-03T21:52:57.270Z,14.22
2018-02-03T21:55:24.831Z,14.09
2018-02-03T21:57:52.470Z,13.99
2018-02-03T22:00:20.286Z,13.93
2018-02-03T22:02:47.858Z,13.82
2018-02-03T22:05:15.514Z,13.64
2018-02-03T22:07:43.339Z,13.55
2018-02-03T22:10:10.973Z,13.34
2018-02-03T22:12:38.573Z,13.15
2018-02-03T22:15:06.193Z,12.96
2018-02-03T22:17:33.762Z,12.92
2018-02-03T22:20:01.322Z,12.88
2018-02-03T22:22:28.898Z,12.79
2018-02-03T22:24:56.457Z,12.76
2018-02-03T22:27:24.181Z,12.89
2018-02-03T22:29:51.741Z,12.83
2018-02-03T22:32:19.398Z,12.68
2018-02-03T22:34:46.976Z,12.52
2018-02-03T22:37:14.550Z,12.43
2018-02-03T22:39:42.119Z,12.34
2018-02-03T22:42:09.747Z,12.31
2018-02-03T22:44:37.319Z,12.22
2018-02-03T22:47:05.125Z,12.25
2018-02-03T22:49:32.738Z,12.23
2018-02-03T22:52:00.462Z,12.20
2018-02-03T22:54:28.100Z,12.10
2018-02-03T22:56:55.897Z,11.99
2018-02-03T22:59:23.458Z,11.99
2018-02-03T23:01:51.338Z,11.97
2018-02-03T23:04:19.128Z,11.98
2018-02-03T23:06:46.690Z,12.00
2018-02-03T23:09:14.333Z,11.97
2018-02-03T23:11:41.991Z,11.92
2018-02-03T23:14:09.576Z,11.79
2018-02-03T23:16:37.311Z,11.89
2018-02-03T23:19:04.945Z,11.86
2018-02-03T23:21:32.678Z,11.83
2018-02-03T23:24:00.265Z,11.77
2018-02-03T23:26:27.838Z,11.68
2018-02-03T23:28:55.632Z,11.54
2018-02-03T23:31:23.450Z,11.61
2018-02-03T23:33:50.993Z,11.55
2018-02-03T23:36:18.789Z,11.57
2018-02-03T23:38:46.373Z,11.55
2018-02-03T23:41:13.928Z,11.54
2018-02-03T23:43:41.549Z,11.47
2018-02-03T23:46:09.359Z,11.42
2018-02-03T23:48:37.051Z,11.36
2018-02-03T23:51:04.638Z,11.38
2018-02-03T23:53:32.204Z,11.33
2018-02-03T23:55:59.782Z,11.28
2018-02-03T23:58:27.573Z,11.27
